sensor_id;sensor_type;location;lat;lon;timestamp;P1;durP1;ratioP1;P2;durP2;ratioP2
76098;SDS011;64828;49.956;8.636;2024-03-23T00:52:09;21.20;;;15.88;;
76098;SDS011;64828;49.956;8.636;2024-03-23T00:52:26;22.80;;;15.85;;
76098;SDS011;64828;49.956;8.636;2024-03-23T00:52:42;24.17;;;15.93;;
76098;SDS011;64828;49.956;8.636;2024-03-23T00:53:00;23.58;;;15.80;;
76098;SDS011;64828;49.956;8.636;2024-03-23T00:53:50;22.40;;;15.25;;
76098;SDS011;64828;49.956;8.636;2024-03-23T00:54:05;22.88;;;15.45;;
76098;SDS011;64828;49.956;8.636;2024-03-23T00:54:21;22.70;;;15.25;;
76098;SDS011;64828;49.956;8.636;2024-03-23T00:54:37;23.20;;;15.93;;
76098;SDS011;64828;49.956;8.636;2024-03-23T00:54:52;22.52;;;15.73;;
76098;SDS011;64828;49.956;8.636;2024-03-23T00:55:08;20.58;;;15.15;;
76098;SDS011;64828;49.956;8.636;2024-03-23T00:55:24;21.50;;;15.80;;
76098;SDS011;64828;49.956;8.636;2024-03-23T00:55:39;21.42;;;15.68;;
76098;SDS011;64828;49.956;8.636;2024-03-23T00:55:55;22.98;;;15.63;;
76098;SDS011;64828;49.956;8.636;2024-03-23T00:56:11;23.83;;;15.60;;
76098;SDS011;64828;49.956;8.636;2024-03-23T00:56:26;22.95;;;15.38;;
76098;SDS011;64828;49.956;8.636;2024-03-23T00:56:42;23.38;;;14.82;;
76098;SDS011;64828;49.956;8.636;2024-03-23T00:56:58;20.97;;;14.20;;
76098;SDS011;64828;49.956;8.636;2024-03-23T00:57:13;20.42;;;14.52;;
76098;SDS011;64828;49.956;8.636;2024-03-23T00:57:29;22.33;;;15.23;;
76098;SDS011;64828;49.956;8.636;2024-03-23T00:57:45;22.77;;;15.32;;
76098;SDS011;64828;49.956;8.636;2024-03-23T00:58:00;20.73;;;14.63;;
76098;SDS011;64828;49.956;8.636;2024-03-23T00:58:16;19.53;;;14.13;;
76098;SDS011;64828;49.956;8.636;2024-03-23T00:58:32;21.42;;;14.23;;
76098;SDS011;64828;49.956;8.636;2024-03-23T00:58:48;23.03;;;14.37;;
76098;SDS011;64828;49.956;8.636;2024-03-23T00:59:03;21.63;;;13.95;;
76098;SDS011;64828;49.956;8.636;2024-03-23T00:59:19;21.30;;;14.75;;
76098;SDS011;64828;49.956;8.636;2024-03-23T00:59:37;21.85;;;15.38;;
76098;SDS011;64828;49.956;8.636;2024-03-23T00:59:52;20.95;;;14.55;;
76098;SDS011;64828;49.956;8.636;2024-03-23T01:00:08;20.13;;;14.47;;
76098;SDS011;64828;49.956;8.636;2024-03-23T01:00:25;22.55;;;15.27;;
76098;SDS011;64828;49.956;8.636;2024-03-23T01:00:41;21.90;;;15.23;;
76098;SDS011;64828;49.956;8.636;2024-03-23T01:00:56;19.20;;;14.32;;
76098;SDS011;64828;49.956;8.636;2024-03-23T01:01:12;19.98;;;14.02;;
76098;SDS011;64828;49.956;8.636;2024-03-23T01:01:28;22.30;;;14.43;;
76098;SDS011;64828;49.956;8.636;2024-03-23T01:01:43;23.17;;;14.68;;
76098;SDS011;64828;49.956;8.636;2024-03-23T01:02:02;20.45;;;14.30;;
76098;SDS011;64828;49.956;8.636;2024-03-23T01:02:18;19.97;;;14.60;;
76098;SDS011;64828;49.956;8.636;2024-03-23T01:02:33;19.83;;;14.43;;
76098;SDS011;64828;49.956;8.636;2024-03-23T01:02:49;20.63;;;14.68;;
76098;SDS011;64828;49.956;8.636;2024-03-23T01:03:05;21.30;;;14.77;;
76098;SDS011;64828;49.956;8.636;2024-03-23T01:03:20;20.00;;;14.57;;
76098;SDS011;64828;49.956;8.636;2024-03-23T01:03:36;19.60;;;14.33;;
76098;SDS011;64828;49.956;8.636;2024-03-23T01:03:52;20.17;;;14.23;;
76098;SDS011;64828;49.956;8.636;2024-03-23T01:04:07;19.73;;;14.82;;
76098;SDS011;64828;49.956;8.636;2024-03-23T01:04:23;18.60;;;14.63;;
76098;SDS011;64828;49.956;8.636;2024-03-23T01:04:38;20.20;;;14.88;;
76098;SDS011;64828;49.956;8.636;2024-03-23T01:04:54;22.02;;;15.15;;
76098;SDS011;64828;49.956;8.636;2024-03-23T01:05:10;20.73;;;14.40;;
76098;SDS011;64828;49.956;8.636;2024-03-23T01:05:25;20.80;;;14.50;;
76098;SDS011;64828;49.956;8.636;2024-03-23T01:05:41;21.95;;;15.10;;
76098;SDS011;64828;49.956;8.636;2024-03-23T01:06:00;22.77;;;15.20;;
76098;SDS011;64828;49.956;8.636;2024-03-23T01:06:16;20.17;;;14.82;;
76098;SDS011;64828;49.956;8.636;2024-03-23T01:06:32;21.17;;;14.43;;
76098;SDS011;64828;49.956;8.636;2024-03-23T01:06:48;21.83;;;14.40;;
76098;SDS011;64828;49.956;8.636;2024-03-23T01:07:03;20.45;;;14.48;;
76098;SDS011;64828;49.956;8.636;2024-03-23T01:07:19;20.57;;;14.70;;
76098;SDS011;64828;49.956;8.636;2024-03-23T01:07:35;20.83;;;14.90;;
76098;SDS011;64828;49.956;8.636;2024-03-23T01:07:50;20.77;;;15.02;;
76098;SDS011;64828;49.956;8.636;2024-03-23T01:08:06;20.47;;;14.57;;
76098;SDS011;64828;49.956;8.636;2024-03-23T01:08:22;20.50;;;14.38;;
76098;SDS011;64828;49.956;8.636;2024-03-23T01:08:37;20.33;;;14.32;;
76098;SDS011;64828;49.956;8.636;2024-03-23T01:08:53;20.63;;;14.20;;
76098;SDS011;64828;49.956;8.636;2024-03-23T01:09:09;20.08;;;13.98;;
76098;SDS011;64828;49.956;8.636;2024-03-23T01:09:25;20.52;;;13.85;;
76098;SDS011;64828;49.956;8.636;2024-03-23T01:09:41;20.37;;;14.37;;
76098;SDS011;64828;49.956;8.636;2024-03-23T01:09:57;21.00;;;14.90;;
76098;SDS011;64828;49.956;8.636;2024-03-23T01:10:12;21.17;;;14.63;;
76098;SDS011;64828;49.956;8.636;2024-03-23T01:10:28;20.33;;;14.63;;
76098;SDS011;64828;49.956;8.636;2024-03-23T01:10:53;21.30;;;14.73;;
76098;SDS011;64828;49.956;8.636;2024-03-23T01:11:13;19.65;;;14.88;;
76098;SDS011;64828;49.956;8.636;2024-03-23T01:11:28;20.40;;;14.77;;
76098;SDS011;64828;49.956;8.636;2024-03-23T01:11:44;21.67;;;14.37;;
76098;SDS011;64828;49.956;8.636;2024-03-23T01:12:00;20.70;;;14.30;;
76098;SDS011;64828;49.956;8.636;2024-03-23T01:12:16;20.35;;;14.55;;
76098;SDS011;64828;49.956;8.636;2024-03-23T01:12:32;20.67;;;14.50;;
76098;SDS011;64828;49.956;8.636;2024-03-23T01:12:48;21.10;;;14.55;;
76098;SDS011;64828;49.956;8.636;2024-03-23T01:13:03;22.55;;;15.27;;
76098;SDS011;64828;49.956;8.636;2024-03-23T01:13:19;22.33;;;15.50;;
76098;SDS011;64828;49.956;8.636;2024-03-23T01:13:37;21.05;;;15.18;;
76098;SDS011;64828;49.956;8.636;2024-03-23T01:13:53;22.85;;;15.00;;
76098;SDS011;64828;49.956;8.636;2024-03-23T01:14:11;20.88;;;14.60;;
76098;SDS011;64828;49.956;8.636;2024-03-23T01:14:26;20.33;;;14.93;;
76098;SDS011;64828;49.956;8.636;2024-03-23T01:14:42;20.30;;;14.63;;
76098;SDS011;64828;49.956;8.636;2024-03-23T01:14:57;20.88;;;14.63;;
76098;SDS011;64828;49.956;8.636;2024-03-23T01:15:13;20.57;;;15.13;;
76098;SDS011;64828;49.956;8.636;2024-03-23T01:15:29;21.40;;;15.07;;
76098;SDS011;64828;49.956;8.636;2024-03-23T01:15:47;24.70;;;15.10;;
76098;SDS011;64828;49.956;8.636;2024-03-23T01:16:04;24.25;;;15.63;;
76098;SDS011;64828;49.956;8.636;2024-03-23T01:16:20;22.53;;;14.93;;
76098;SDS011;64828;49.956;8.636;2024-03-23T01:16:36;20.70;;;14.88;;
76098;SDS011;64828;49.956;8.636;2024-03-23T01:16:52;21.20;;;15.13;;
76098;SDS011;64828;49.956;8.636;2024-03-23T01:17:07;21.73;;;14.90;;
76098;SDS011;64828;49.956;8.636;2024-03-23T01:17:23;21.00;;;15.00;;
76098;SDS011;64828;49.956;8.636;2024-03-23T01:17:39;21.80;;;15.10;;
76098;SDS011;64828;49.956;8.636;2024-03-23T01:17:54;20.70;;;14.53;;
76098;SDS011;64828;49.956;8.636;2024-03-23T01:18:10;21.48;;;14.55;;
76098;SDS011;64828;49.956;8.636;2024-03-23T01:18:26;23.38;;;14.75;;
76098;SDS011;64828;49.956;8.636;2024-03-23T01:18:41;20.40;;;14.23;;
76098;SDS011;64828;49.956;8.636;2024-03-23T01:18:57;18.92;;;14.45;;
76098;SDS011;64828;49.956;8.636;2024-03-23T01:19:13;19.63;;;14.38;;
76098;SDS011;64828;49.956;8.636;2024-03-23T01:19:28;21.10;;;14.27;;
76098;SDS011;64828;49.956;8.636;2024-03-23T01:19:44;21.33;;;14.23;;
76098;SDS011;64828;49.956;8.636;2024-03-23T01:20:00;20.92;;;14.35;;
76098;SDS011;64828;49.956;8.636;2024-03-23T01:20:17;20.70;;;14.85;;
76098;SDS011;64828;49.956;8.636;2024-03-23T01:20:33;20.50;;;15.07;;
76098;SDS011;64828;49.956;8.636;2024-03-23T01:20:49;20.55;;;15.07;;
76098;SDS011;64828;49.956;8.636;2024-03-23T01:21:05;20.08;;;15.10;;
76098;SDS011;64828;49.956;8.636;2024-03-23T01:21:20;20.13;;;14.93;;
76098;SDS011;64828;49.956;8.636;2024-03-23T01:21:36;20.23;;;14.63;;
76098;SDS011;64828;49.956;8.636;2024-03-23T01:21:51;18.80;;;14.05;;
76098;SDS011;64828;49.956;8.636;2024-03-23T01:22:07;19.70;;;14.53;;
76098;SDS011;64828;49.956;8.636;2024-03-23T01:22:24;20.63;;;14.95;;
76098;SDS011;64828;49.956;8.636;2024-03-23T01:22:40;20.90;;;15.00;;
76098;SDS011;64828;49.956;8.636;2024-03-23T01:22:57;21.25;;;14.55;;
76098;SDS011;64828;49.956;8.636;2024-03-23T01:23:13;20.23;;;14.18;;
76098;SDS011;64828;49.956;8.636;2024-03-23T01:23:29;21.13;;;14.68;;
76098;SDS011;64828;49.956;8.636;2024-03-23T01:23:45;22.30;;;14.88;;
76098;SDS011;64828;49.956;8.636;2024-03-23T01:24:00;23.20;;;14.97;;
76098;SDS011;64828;49.956;8.636;2024-03-23T01:24:16;21.63;;;14.73;;
76098;SDS011;64828;49.956;8.636;2024-03-23T01:24:32;19.98;;;13.98;;
76098;SDS011;64828;49.956;8.636;2024-03-23T01:24:48;18.98;;;13.07;;
76098;SDS011;64828;49.956;8.636;2024-03-23T01:25:03;20.17;;;13.67;;
76098;SDS011;64828;49.956;8.636;2024-03-23T01:25:19;21.27;;;14.25;;
76098;SDS011;64828;49.956;8.636;2024-03-23T01:25:35;20.45;;;14.20;;
76098;SDS011;64828;49.956;8.636;2024-03-23T01:25:53;20.03;;;14.07;;
76098;SDS011;64828;49.956;8.636;2024-03-23T01:26:09;20.70;;;14.00;;
76098;SDS011;64828;49.956;8.636;2024-03-23T01:26:25;20.30;;;14.38;;
76098;SDS011;64828;49.956;8.636;2024-03-23T01:26:41;19.95;;;14.45;;
76098;SDS011;64828;49.956;8.636;2024-03-23T01:26:56;20.93;;;14.83;;
76098;SDS011;64828;49.956;8.636;2024-03-23T01:27:12;20.02;;;14.35;;
76098;SDS011;64828;49.956;8.636;2024-03-23T01:27:28;19.60;;;13.98;;
76098;SDS011;64828;49.956;8.636;2024-03-23T01:27:44;20.92;;;14.32;;
76098;SDS011;64828;49.956;8.636;2024-03-23T01:27:59;20.93;;;14.43;;
76098;SDS011;64828;49.956;8.636;2024-03-23T01:28:15;20.30;;;14.55;;
76098;SDS011;64828;49.956;8.636;2024-03-23T01:28:31;20.23;;;14.53;;
76098;SDS011;64828;49.956;8.636;2024-03-23T01:28:46;22.08;;;14.45;;
76098;SDS011;64828;49.956;8.636;2024-03-23T01:29:02;22.05;;;14.48;;
76098;SDS011;64828;49.956;8.636;2024-03-23T01:29:17;21.20;;;14.80;;
76098;SDS011;64828;49.956;8.636;2024-03-23T01:29:33;22.25;;;14.93;;
76098;SDS011;64828;49.956;8.636;2024-03-23T01:29:49;22.25;;;14.75;;
76098;SDS011;64828;49.956;8.636;2024-03-23T01:30:06;20.48;;;14.30;;
76098;SDS011;64828;49.956;8.636;2024-03-23T01:30:22;20.65;;;13.98;;
76098;SDS011;64828;49.956;8.636;2024-03-23T01:30:38;21.40;;;14.52;;
76098;SDS011;64828;49.956;8.636;2024-03-23T01:30:53;20.87;;;14.20;;
76098;SDS011;64828;49.956;8.636;2024-03-23T01:31:09;20.35;;;13.82;;
76098;SDS011;64828;49.956;8.636;2024-03-23T01:31:25;20.83;;;14.27;;
76098;SDS011;64828;49.956;8.636;2024-03-23T01:31:41;20.67;;;14.60;;
76098;SDS011;64828;49.956;8.636;2024-03-23T01:31:56;20.40;;;14.45;;
76098;SDS011;64828;49.956;8.636;2024-03-23T01:32:12;21.00;;;13.93;;
76098;SDS011;64828;49.956;8.636;2024-03-23T01:32:27;22.63;;;14.73;;
76098;SDS011;64828;49.956;8.636;2024-03-23T01:32:43;22.23;;;14.98;;
76098;SDS011;64828;49.956;8.636;2024-03-23T01:32:59;20.38;;;14.27;;
76098;SDS011;64828;49.956;8.636;2024-03-23T01:33:15;19.97;;;14.13;;
76098;SDS011;64828;49.956;8.636;2024-03-23T01:33:30;19.30;;;14.35;;
76098;SDS011;64828;49.956;8.636;2024-03-23T01:33:46;19.70;;;14.38;;
76098;SDS011;64828;49.956;8.636;2024-03-23T01:34:02;19.98;;;13.98;;
76098;SDS011;64828;49.956;8.636;2024-03-23T01:34:18;20.57;;;14.40;;
76098;SDS011;64828;49.956;8.636;2024-03-23T01:34:35;19.50;;;14.27;;
76098;SDS011;64828;49.956;8.636;2024-03-23T01:34:51;18.67;;;13.73;;
76098;SDS011;64828;49.956;8.636;2024-03-23T01:35:07;19.77;;;14.03;;
76098;SDS011;64828;49.956;8.636;2024-03-23T01:35:23;20.70;;;14.10;;
76098;SDS011;64828;49.956;8.636;2024-03-23T01:35:38;22.00;;;14.03;;
76098;SDS011;64828;49.956;8.636;2024-03-23T01:35:54;20.48;;;14.30;;
76098;SDS011;64828;49.956;8.636;2024-03-23T01:36:10;20.23;;;14.73;;
76098;SDS011;64828;49.956;8.636;2024-03-23T01:36:25;22.03;;;14.60;;
76098;SDS011;64828;49.956;8.636;2024-03-23T01:36:41;21.05;;;14.20;;
76098;SDS011;64828;49.956;8.636;2024-03-23T01:36:57;20.80;;;14.03;;
76098;SDS011;64828;49.956;8.636;2024-03-23T01:37:13;20.98;;;13.93;;
76098;SDS011;64828;49.956;8.636;2024-03-23T01:37:29;21.67;;;14.18;;
76098;SDS011;64828;49.956;8.636;2024-03-23T01:37:44;21.73;;;14.60;;
76098;SDS011;64828;49.956;8.636;2024-03-23T01:38:00;21.95;;;14.68;;
76098;SDS011;64828;49.956;8.636;2024-03-23T01:38:16;22.20;;;14.15;;
76098;SDS011;64828;49.956;8.636;2024-03-23T01:38:32;22.07;;;14.40;;
76098;SDS011;64828;49.956;8.636;2024-03-23T01:38:47;21.90;;;14.90;;
76098;SDS011;64828;49.956;8.636;2024-03-23T01:39:03;21.63;;;14.83;;
76098;SDS011;64828;49.956;8.636;2024-03-23T01:39:19;22.90;;;14.85;;
76098;SDS011;64828;49.956;8.636;2024-03-23T01:39:34;21.33;;;14.88;;
76098;SDS011;64828;49.956;8.636;2024-03-23T01:39:50;19.47;;;14.57;;
76098;SDS011;64828;49.956;8.636;2024-03-23T01:40:06;21.33;;;14.43;;
76098;SDS011;64828;49.956;8.636;2024-03-23T01:40:22;22.30;;;15.05;;
76098;SDS011;64828;49.956;8.636;2024-03-23T01:40:38;23.73;;;15.27;;
76098;SDS011;64828;49.956;8.636;2024-03-23T01:40:59;22.63;;;14.18;;
76098;SDS011;64828;49.956;8.636;2024-03-23T01:41:15;22.35;;;14.10;;
76098;SDS011;64828;49.956;8.636;2024-03-23T01:41:31;21.60;;;14.27;;
76098;SDS011;64828;49.956;8.636;2024-03-23T01:41:46;20.08;;;14.05;;
76098;SDS011;64828;49.956;8.636;2024-03-23T01:42:02;21.23;;;13.93;;
76098;SDS011;64828;49.956;8.636;2024-03-23T01:42:18;22.88;;;14.15;;
76098;SDS011;64828;49.956;8.636;2024-03-23T01:42:34;20.65;;;13.98;;
76098;SDS011;64828;49.956;8.636;2024-03-23T01:42:56;19.37;;;13.93;;
76098;SDS011;64828;49.956;8.636;2024-03-23T01:43:13;19.63;;;13.85;;
76098;SDS011;64828;49.956;8.636;2024-03-23T01:43:29;19.77;;;14.33;;
76098;SDS011;64828;49.956;8.636;2024-03-23T01:43:44;20.58;;;14.38;;
76098;SDS011;64828;49.956;8.636;2024-03-23T01:44:00;22.20;;;14.57;;
76098;SDS011;64828;49.956;8.636;2024-03-23T01:44:24;19.02;;;14.43;;
76098;SDS011;64828;49.956;8.636;2024-03-23T01:44:39;20.25;;;14.25;;
76098;SDS011;64828;49.956;8.636;2024-03-23T01:44:55;20.58;;;14.27;;
76098;SDS011;64828;49.956;8.636;2024-03-23T01:45:11;20.83;;;14.73;;
76098;SDS011;64828;49.956;8.636;2024-03-23T01:45:26;20.55;;;14.98;;
76098;SDS011;64828;49.956;8.636;2024-03-23T01:45:42;20.55;;;15.15;;
76098;SDS011;64828;49.956;8.636;2024-03-23T01:45:58;21.57;;;15.57;;
76098;SDS011;64828;49.956;8.636;2024-03-23T01:46:14;21.30;;;15.20;;
76098;SDS011;64828;49.956;8.636;2024-03-23T01:46:29;20.98;;;14.18;;
76098;SDS011;64828;49.956;8.636;2024-03-23T01:46:45;22.80;;;14.10;;
76098;SDS011;64828;49.956;8.636;2024-03-23T01:47:01;20.25;;;13.68;;
76098;SDS011;64828;49.956;8.636;2024-03-23T01:47:17;18.88;;;13.85;;
76098;SDS011;64828;49.956;8.636;2024-03-23T01:47:32;20.02;;;14.70;;
76098;SDS011;64828;49.956;8.636;2024-03-23T01:47:49;19.58;;;14.48;;
76098;SDS011;64828;49.956;8.636;2024-03-23T01:48:07;19.42;;;13.88;;
76098;SDS011;64828;49.956;8.636;2024-03-23T01:48:24;18.92;;;13.77;;
76098;SDS011;64828;49.956;8.636;2024-03-23T01:48:39;20.45;;;14.10;;
76098;SDS011;64828;49.956;8.636;2024-03-23T01:48:55;21.83;;;14.47;;
76098;SDS011;64828;49.956;8.636;2024-03-23T01:49:11;21.63;;;14.32;;
76098;SDS011;64828;49.956;8.636;2024-03-23T01:49:27;20.75;;;14.05;;
76098;SDS011;64828;49.956;8.636;2024-03-23T01:49:43;20.37;;;14.33;;
76098;SDS011;64828;49.956;8.636;2024-03-23T01:49:59;20.30;;;14.70;;
76098;SDS011;64828;49.956;8.636;2024-03-23T01:50:15;20.48;;;14.23;;
76098;SDS011;64828;49.956;8.636;2024-03-23T01:50:31;20.02;;;13.75;;
76098;SDS011;64828;49.956;8.636;2024-03-23T01:50:50;20.83;;;14.48;;
76098;SDS011;64828;49.956;8.636;2024-03-23T01:51:06;19.60;;;14.27;;
76098;SDS011;64828;49.956;8.636;2024-03-23T01:51:22;19.65;;;13.93;;
76098;SDS011;64828;49.956;8.636;2024-03-23T01:51:38;21.07;;;14.43;;
76098;SDS011;64828;49.956;8.636;2024-03-23T01:51:54;21.27;;;14.65;;
76098;SDS011;64828;49.956;8.636;2024-03-23T01:52:10;21.73;;;14.75;;
76098;SDS011;64828;49.956;8.636;2024-03-23T01:52:26;21.30;;;14.55;;
76098;SDS011;64828;49.956;8.636;2024-03-23T01:52:42;20.85;;;14.10;;
76098;SDS011;64828;49.956;8.636;2024-03-23T01:53:00;19.15;;;13.95;;
76098;SDS011;64828;49.956;8.636;2024-03-23T01:53:21;18.42;;;13.50;;
76098;SDS011;64828;49.956;8.636;2024-03-23T01:53:38;19.63;;;13.98;;
76098;SDS011;64828;49.956;8.636;2024-03-23T01:53:53;21.00;;;14.35;;
76098;SDS011;64828;49.956;8.636;2024-03-23T01:54:11;21.83;;;14.68;;
76098;SDS011;64828;49.956;8.636;2024-03-23T01:54:27;24.73;;;15.02;;
76098;SDS011;64828;49.956;8.636;2024-03-23T01:54:44;24.00;;;14.60;;
76098;SDS011;64828;49.956;8.636;2024-03-23T01:55:00;21.60;;;14.15;;
76098;SDS011;64828;49.956;8.636;2024-03-23T01:55:16;22.42;;;14.52;;
76098;SDS011;64828;49.956;8.636;2024-03-23T01:55:32;21.38;;;14.57;;
76098;SDS011;64828;49.956;8.636;2024-03-23T01:55:49;21.17;;;14.38;;
76098;SDS011;64828;49.956;8.636;2024-03-23T01:56:06;20.98;;;14.00;;
76098;SDS011;64828;49.956;8.636;2024-03-23T01:56:22;21.08;;;14.55;;
76098;SDS011;64828;49.956;8.636;2024-03-23T01:56:38;22.77;;;14.90;;
76098;SDS011;64828;49.956;8.636;2024-03-23T01:56:53;22.98;;;14.57;;
76098;SDS011;64828;49.956;8.636;2024-03-23T01:57:10;22.70;;;14.37;;
76098;SDS011;64828;49.956;8.636;2024-03-23T01:57:26;23.77;;;14.27;;
76098;SDS011;64828;49.956;8.636;2024-03-23T01:57:41;22.90;;;14.33;;
76098;SDS011;64828;49.956;8.636;2024-03-23T01:57:57;21.27;;;14.23;;
76098;SDS011;64828;49.956;8.636;2024-03-23T01:58:13;21.40;;;14.18;;
76098;SDS011;64828;49.956;8.636;2024-03-23T01:58:29;23.15;;;14.73;;
76098;SDS011;64828;49.956;8.636;2024-03-23T01:58:45;24.50;;;15.15;;
76098;SDS011;64828;49.956;8.636;2024-03-23T01:59:05;24.10;;;15.27;;
76098;SDS011;64828;49.956;8.636;2024-03-23T01:59:21;22.48;;;15.35;;
76098;SDS011;64828;49.956;8.636;2024-03-23T01:59:38;23.13;;;15.13;;
76098;SDS011;64828;49.956;8.636;2024-03-23T01:59:54;23.23;;;15.30;;
76098;SDS011;64828;49.956;8.636;2024-03-23T02:00:10;23.08;;;15.35;;
76098;SDS011;64828;49.956;8.636;2024-03-23T02:00:27;22.70;;;15.15;;
76098;SDS011;64828;49.956;8.636;2024-03-23T02:00:43;24.20;;;15.38;;
76098;SDS011;64828;49.956;8.636;2024-03-23T02:00:58;24.00;;;15.50;;
76098;SDS011;64828;49.956;8.636;2024-03-23T02:01:14;22.45;;;14.82;;
76098;SDS011;64828;49.956;8.636;2024-03-23T02:01:30;22.13;;;14.32;;
76098;SDS011;64828;49.956;8.636;2024-03-23T02:01:46;20.83;;;14.52;;
76098;SDS011;64828;49.956;8.636;2024-03-23T02:02:02;21.00;;;14.83;;
76098;SDS011;64828;49.956;8.636;2024-03-23T02:02:17;22.77;;;14.98;;
76098;SDS011;64828;49.956;8.636;2024-03-23T02:02:34;23.42;;;15.10;;
76098;SDS011;64828;49.956;8.636;2024-03-23T02:02:50;26.92;;;15.15;;
76098;SDS011;64828;49.956;8.636;2024-03-23T02:03:24;26.27;;;15.10;;
76098;SDS011;64828;49.956;8.636;2024-03-23T02:03:41;21.40;;;14.50;;
76098;SDS011;64828;49.956;8.636;2024-03-23T02:03:57;21.37;;;14.30;;
76098;SDS011;64828;49.956;8.636;2024-03-23T02:04:13;22.50;;;14.43;;
76098;SDS011;64828;49.956;8.636;2024-03-23T02:04:29;22.20;;;14.65;;
76098;SDS011;64828;49.956;8.636;2024-03-23T02:04:44;22.47;;;14.67;;
76098;SDS011;64828;49.956;8.636;2024-03-23T02:05:01;23.05;;;14.80;;
76098;SDS011;64828;49.956;8.636;2024-03-23T02:05:16;21.93;;;14.47;;
76098;SDS011;64828;49.956;8.636;2024-03-23T02:05:32;21.42;;;14.60;;
76098;SDS011;64828;49.956;8.636;2024-03-23T02:05:48;20.97;;;14.67;;
76098;SDS011;64828;49.956;8.636;2024-03-23T02:06:04;20.90;;;14.20;;
76098;SDS011;64828;49.956;8.636;2024-03-23T02:06:22;21.52;;;14.10;;
76098;SDS011;64828;49.956;8.636;2024-03-23T02:06:39;21.50;;;13.73;;
76098;SDS011;64828;49.956;8.636;2024-03-23T02:06:55;21.80;;;14.20;;
76098;SDS011;64828;49.956;8.636;2024-03-23T02:07:11;20.77;;;14.47;;
76098;SDS011;64828;49.956;8.636;2024-03-23T02:07:26;21.98;;;14.40;;
76098;SDS011;64828;49.956;8.636;2024-03-23T02:07:42;20.80;;;14.20;;
76098;SDS011;64828;49.956;8.636;2024-03-23T02:07:58;20.27;;;14.25;;
76098;SDS011;64828;49.956;8.636;2024-03-23T02:08:14;22.80;;;14.50;;
76098;SDS011;64828;49.956;8.636;2024-03-23T02:08:30;23.05;;;14.77;;
76098;SDS011;64828;49.956;8.636;2024-03-23T02:08:46;21.58;;;14.82;;
76098;SDS011;64828;49.956;8.636;2024-03-23T02:09:02;21.73;;;14.63;;
76098;SDS011;64828;49.956;8.636;2024-03-23T02:09:18;21.83;;;14.60;;
76098;SDS011;64828;49.956;8.636;2024-03-23T02:09:34;20.75;;;14.20;;
76098;SDS011;64828;49.956;8.636;2024-03-23T02:09:50;21.63;;;14.47;;
76098;SDS011;64828;49.956;8.636;2024-03-23T02:10:07;22.55;;;15.02;;
76098;SDS011;64828;49.956;8.636;2024-03-23T02:10:25;20.83;;;14.18;;
76098;SDS011;64828;49.956;8.636;2024-03-23T02:10:40;22.88;;;15.05;;
76098;SDS011;64828;49.956;8.636;2024-03-23T02:10:57;22.35;;;15.02;;
76098;SDS011;64828;49.956;8.636;2024-03-23T02:11:13;21.80;;;14.65;;
76098;SDS011;64828;49.956;8.636;2024-03-23T02:11:29;21.27;;;14.27;;
76098;SDS011;64828;49.956;8.636;2024-03-23T02:11:45;21.35;;;14.43;;
76098;SDS011;64828;49.956;8.636;2024-03-23T02:12:03;22.27;;;14.70;;
76098;SDS011;64828;49.956;8.636;2024-03-23T02:12:20;21.83;;;14.48;;
76098;SDS011;64828;49.956;8.636;2024-03-23T02:12:36;21.27;;;14.82;;
76098;SDS011;64828;49.956;8.636;2024-03-23T02:12:52;20.88;;;14.73;;
76098;SDS011;64828;49.956;8.636;2024-03-23T02:13:09;19.90;;;14.27;;
76098;SDS011;64828;49.956;8.636;2024-03-23T02:13:24;20.67;;;14.30;;
76098;SDS011;64828;49.956;8.636;2024-03-23T02:13:40;22.20;;;14.60;;
76098;SDS011;64828;49.956;8.636;2024-03-23T02:13:56;21.45;;;14.48;;
76098;SDS011;64828;49.956;8.636;2024-03-23T02:14:11;20.25;;;14.35;;
76098;SDS011;64828;49.956;8.636;2024-03-23T02:14:27;22.27;;;14.33;;
76098;SDS011;64828;49.956;8.636;2024-03-23T02:14:43;24.42;;;14.55;;
76098;SDS011;64828;49.956;8.636;2024-03-23T02:14:58;23.15;;;14.32;;
76098;SDS011;64828;49.956;8.636;2024-03-23T02:15:14;21.20;;;13.65;;
76098;SDS011;64828;49.956;8.636;2024-03-23T02:15:30;21.67;;;13.87;;
76098;SDS011;64828;49.956;8.636;2024-03-23T02:15:46;21.40;;;14.65;;
76098;SDS011;64828;49.956;8.636;2024-03-23T02:16:01;19.80;;;14.23;;
76098;SDS011;64828;49.956;8.636;2024-03-23T02:16:17;19.48;;;13.35;;
76098;SDS011;64828;49.956;8.636;2024-03-23T02:16:33;19.20;;;13.30;;
76098;SDS011;64828;49.956;8.636;2024-03-23T02:16:49;21.65;;;14.52;;
76098;SDS011;64828;49.956;8.636;2024-03-23T02:17:04;24.25;;;14.65;;
76098;SDS011;64828;49.956;8.636;2024-03-23T02:17:20;23.43;;;13.97;;
76098;SDS011;64828;49.956;8.636;2024-03-23T02:17:35;23.73;;;14.60;;
76098;SDS011;64828;49.956;8.636;2024-03-23T02:17:51;22.52;;;14.35;;
76098;SDS011;64828;49.956;8.636;2024-03-23T02:18:07;20.20;;;13.73;;
76098;SDS011;64828;49.956;8.636;2024-03-23T02:18:23;21.33;;;13.98;;
76098;SDS011;64828;49.956;8.636;2024-03-23T02:18:39;21.43;;;14.03;;
76098;SDS011;64828;49.956;8.636;2024-03-23T02:18:55;21.02;;;14.30;;
76098;SDS011;64828;49.956;8.636;2024-03-23T02:19:10;21.67;;;14.93;;
76098;SDS011;64828;49.956;8.636;2024-03-23T02:19:26;21.40;;;14.37;;
76098;SDS011;64828;49.956;8.636;2024-03-23T02:19:42;22.88;;;14.68;;
76098;SDS011;64828;49.956;8.636;2024-03-23T02:19:57;22.40;;;15.18;;
76098;SDS011;64828;49.956;8.636;2024-03-23T02:20:15;21.40;;;14.70;;
76098;SDS011;64828;49.956;8.636;2024-03-23T02:20:30;21.45;;;14.38;;
76098;SDS011;64828;49.956;8.636;2024-03-23T02:20:46;22.40;;;14.73;;
76098;SDS011;64828;49.956;8.636;2024-03-23T02:21:02;22.60;;;14.77;;
76098;SDS011;64828;49.956;8.636;2024-03-23T02:21:18;20.83;;;14.05;;
76098;SDS011;64828;49.956;8.636;2024-03-23T02:21:34;21.13;;;14.38;;
76098;SDS011;64828;49.956;8.636;2024-03-23T02:21:49;21.90;;;14.83;;
76098;SDS011;64828;49.956;8.636;2024-03-23T02:22:05;23.08;;;14.60;;
76098;SDS011;64828;49.956;8.636;2024-03-23T02:22:21;22.67;;;14.60;;
76098;SDS011;64828;49.956;8.636;2024-03-23T02:22:37;21.27;;;14.87;;
76098;SDS011;64828;49.956;8.636;2024-03-23T02:22:54;21.75;;;15.30;;
76098;SDS011;64828;49.956;8.636;2024-03-23T02:23:13;23.05;;;14.75;;
76098;SDS011;64828;49.956;8.636;2024-03-23T02:23:33;22.48;;;14.25;;
76098;SDS011;64828;49.956;8.636;2024-03-23T02:23:48;23.53;;;14.00;;
76098;SDS011;64828;49.956;8.636;2024-03-23T02:24:04;23.95;;;14.57;;
76098;SDS011;64828;49.956;8.636;2024-03-23T02:24:20;23.85;;;15.10;;
76098;SDS011;64828;49.956;8.636;2024-03-23T02:24:36;22.75;;;14.52;;
76098;SDS011;64828;49.956;8.636;2024-03-23T02:24:52;21.55;;;14.75;;
76098;SDS011;64828;49.956;8.636;2024-03-23T02:25:08;22.38;;;14.25;;
76098;SDS011;64828;49.956;8.636;2024-03-23T02:25:24;22.98;;;14.25;;
76098;SDS011;64828;49.956;8.636;2024-03-23T02:25:39;22.67;;;14.60;;
76098;SDS011;64828;49.956;8.636;2024-03-23T02:25:55;22.88;;;14.60;;
76098;SDS011;64828;49.956;8.636;2024-03-23T02:26:11;22.27;;;14.77;;
76098;SDS011;64828;49.956;8.636;2024-03-23T02:26:26;21.47;;;14.93;;
76098;SDS011;64828;49.956;8.636;2024-03-23T02:26:42;23.05;;;15.30;;
76098;SDS011;64828;49.956;8.636;2024-03-23T02:26:58;24.08;;;15.63;;